createdAt,value
2022-09-01T00:00:38.449Z,100346.09
2022-09-01T00:03:42.228Z,100350.56
2022-09-01T00:06:45.211Z,100355.75
2022-09-01T00:09:48.232Z,100341.16
2022-09-01T00:12:50.921Z,100341.66
2022-09-01T00:15:54.758Z,100328.47
2022-09-01T00:18:58.063Z,100324.69
2022-09-01T00:22:01.634Z,100322.06
2022-09-01T00:25:06.152Z,100329.88
2022-09-01T00:28:09.168Z,100320.59
2022-09-01T00:31:12.072Z,100323.47
2022-09-01T00:34:15.362Z,100321.38
2022-09-01T00:37:18.078Z,100327.09
2022-09-01T00:40:21.245Z,100333.41
2022-09-01T00:43:40.858Z,100335.13
2022-09-01T00:46:55.196Z,100339.06
2022-09-01T00:49:59.762Z,100336.28
2022-09-01T00:53:04.200Z,100330.41
2022-09-01T00:56:07.771Z,100346.06
2022-09-01T00:59:14.603Z,100342.06
2022-09-01T01:02:18.644Z,100345.87
2022-09-01T01:05:28.151Z,100342.47
2022-09-01T01:08:34.398Z,100347.12
2022-09-01T01:11:38.381Z,100336.28
2022-09-01T01:14:44.075Z,100332.25
2022-09-01T01:17:49.015Z,100337.53
2022-09-01T01:21:29.413Z,100339.06
2022-09-01T01:24:35.250Z,100334.12
2022-09-01T01:27:43.069Z,100333.16
2022-09-01T01:30:53.644Z,100344.38
2022-09-01T01:33:58.108Z,100346.28
2022-09-01T01:37:02.345Z,100347.88
2022-09-01T01:40:05.951Z,100350.22
2022-09-01T01:43:12.319Z,100345.00
2022-09-01T01:46:19.345Z,100342.66
2022-09-01T01:49:29.255Z,100338.28
2022-09-01T01:52:33.555Z,100336.81
2022-09-01T01:55:37.850Z,100328.66
2022-09-01T01:58:41.804Z,100347.44
2022-09-01T02:01:49.522Z,100340.22
2022-09-01T02:04:53.683Z,100336.16
2022-09-01T02:08:04.135Z,100338.59
2022-09-01T02:11:09.144Z,100337.12
2022-09-01T02:14:13.770Z,100326.72
2022-09-01T02:17:17.103Z,100326.94
2022-09-01T02:20:22.183Z,100325.78
2022-09-01T02:23:25.785Z,100327.06
2022-09-01T02:26:32.335Z,100322.03
2022-09-01T02:29:40.207Z,100311.31
2022-09-01T02:32:47.415Z,100312.56
2022-09-01T02:35:54.585Z,100313.41
2022-09-01T02:39:00.004Z,100317.78
2022-09-01T02:42:03.217Z,100320.22
2022-09-01T02:45:15.886Z,100319.91
2022-09-01T02:48:19.212Z,100315.44
2022-09-01T02:51:27.541Z,100320.16
2022-09-01T02:54:32.750Z,100318.53
2022-09-01T02:57:36.044Z,100318.53
2022-09-01T03:00:39.765Z,100327.66
2022-09-01T03:03:42.813Z,100326.94
2022-09-01T03:06:46.933Z,100315.72
2022-09-01T03:09:53.832Z,100316.66
2022-09-01T03:12:56.847Z,100318.69
2022-09-01T03:16:00.511Z,100321.41
2022-09-01T03:19:04.321Z,100320.25
2022-09-01T03:22:07.071Z,100318.25
2022-09-01T03:25:10.294Z,100316.97
2022-09-01T03:28:13.784Z,100309.31
2022-09-01T03:31:19.501Z,100305.66
2022-09-01T03:34:23.840Z,100311.34
2022-09-01T03:37:27.301Z,100318.97
2022-09-01T03:40:34.304Z,100316.56
2022-09-01T03:43:37.388Z,100312.97
2022-09-01T03:46:48.835Z,100297.81
2022-09-01T03:49:52.662Z,100293.78
2022-09-01T03:52:59.320Z,100302.59
2022-09-01T03:56:04.327Z,100303.28
2022-09-01T03:59:07.678Z,100295.75
2022-09-01T04:02:13.303Z,100301.28
2022-09-01T04:05:18.563Z,100298.91
2022-09-01T04:08:32.408Z,100296.16
2022-09-01T04:11:42.528Z,100306.22
2022-09-01T04:14:48.698Z,100308.69
2022-09-01T04:18:10.475Z,100310.97
2022-09-01T04:21:14.213Z,100319.44
2022-09-01T04:24:19.304Z,100319.91
2022-09-01T04:27:24.986Z,100328.28
2022-09-01T04:30:31.957Z,100322.28
2022-09-01T04:33:39.743Z,100320.31
2022-09-01T04:36:45.036Z,100302.31
2022-09-01T04:39:55.820Z,100300.78
2022-09-01T04:42:59.878Z,100303.53
2022-09-01T04:46:03.474Z,100313.16
2022-09-01T04:49:10.277Z,100314.44
2022-09-01T04:52:16.632Z,100319.63
2022-09-01T04:55:22.442Z,100314.50
2022-09-01T04:58:26.425Z,100313.69
2022-09-01T05:01:29.556Z,100313.25
2022-09-01T05:04:34.037Z,100319.69
2022-09-01T05:07:38.156Z,100319.78
2022-09-01T05:10:44.883Z,100318.91
2022-09-01T05:13:49.843Z,100330.47
2022-09-01T05:16:59.632Z,100332.91
2022-09-01T05:20:02.921Z,100324.91
2022-09-01T05:23:05.790Z,100309.75
2022-09-01T05:26:22.862Z,100306.50
2022-09-01T05:29:28.149Z,100311.66
2022-09-01T05:32:32.581Z,100321.63
2022-09-01T05:35:35.860Z,100313.62
2022-09-01T05:38:41.423Z,100320.81
2022-09-01T05:41:44.352Z,100315.25
2022-09-01T05:44:48.233Z,100323.19
2022-09-01T05:47:55.563Z,100329.97
2022-09-01T05:51:00.593Z,100328.41
2022-09-01T05:54:05.209Z,100330.38
2022-09-01T05:57:32.688Z,100339.94
2022-09-01T06:00:35.811Z,100341.16
2022-09-01T06:03:40.907Z,100335.56
2022-09-01T06:07:07.146Z,100338.28
2022-09-01T06:10:10.548Z,100345.13
2022-09-01T06:13:16.121Z,100345.91
2022-09-01T06:16:20.156Z,100343.03
2022-09-01T06:19:23.096Z,100341.81
2022-09-01T06:22:28.463Z,100350.56
2022-09-01T06:25:31.563Z,100355.69
2022-09-01T06:28:35.221Z,100348.41
2022-09-01T06:31:39.571Z,100351.09
2022-09-01T06:34:44.857Z,100356.66
2022-09-01T06:37:49.386Z,100348.66
2022-09-01T06:41:01.951Z,100352.28
2022-09-01T06:44:04.721Z,100358.28
2022-09-01T06:47:10.124Z,100360.66
2022-09-01T06:51:14.767Z,100372.69
2022-09-01T06:53:43.457Z,100379.75
2022-09-01T06:56:51.859Z,100372.59
2022-09-01T07:00:21.140Z,100367.97
2022-09-01T07:03:25.209Z,100373.28
2022-09-01T07:13:24.107Z,100381.47
2022-09-01T07:16:34.024Z,100375.94
2022-09-01T07:19:53.804Z,100371.41
2022-09-01T07:23:06.522Z,100371.75
2022-09-01T07:26:24.657Z,100372.91
2022-09-01T07:29:30.052Z,100377.22
2022-09-01T07:32:44.120Z,100375.97
2022-09-01T07:42:31.192Z,100382.28
2022-09-01T07:50:11.389Z,100376.84
2022-09-01T07:53:02.087Z,100375.44
2022-09-01T07:56:10.186Z,100382.06
2022-09-01T07:59:15.665Z,100382.25
2022-09-01T08:02:23.125Z,100382.38
2022-09-01T08:05:27.447Z,100381.41
2022-09-01T08:08:30.994Z,100386.00
2022-09-01T08:11:58.561Z,100389.28
2022-09-01T08:15:13.877Z,100386.53
2022-09-01T08:18:21.240Z,100396.59
2022-09-01T08:21:25.380Z,100393.34
2022-09-01T08:24:31.207Z,100398.59
2022-09-01T08:27:36.682Z,100392.09
2022-09-01T08:30:42.160Z,100390.22
2022-09-01T08:33:55.584Z,100391.19
2022-09-01T08:36:58.729Z,100391.31
2022-09-01T08:40:04.025Z,100393.97
2022-09-01T08:43:15.127Z,100397.00
2022-09-01T08:46:35.632Z,100397.81
2022-09-01T08:49:44.188Z,100397.00
2022-09-01T08:53:09.001Z,100400.97
2022-09-01T08:56:13.876Z,100402.84
2022-09-01T08:59:17.789Z,100396.41
2022-09-01T09:02:59.072Z,100387.22
2022-09-01T09:06:30.143Z,100388.75
2022-09-01T09:09:49.342Z,100390.06
2022-09-01T09:13:05.387Z,100390.53
2022-09-01T09:16:51.582Z,100381.50
2022-09-01T09:19:56.257Z,100374.34
2022-09-01T09:23:10.575Z,100381.53
2022-09-01T09:26:16.625Z,100371.63
2022-09-01T09:29:22.162Z,100372.81
2022-09-01T09:36:22.082Z,100351.84
2022-09-01T09:39:29.941Z,100352.50
2022-09-01T09:42:36.547Z,100352.87
2022-09-01T09:45:42.001Z,100352.28
2022-09-01T09:48:45.567Z,100352.09
2022-09-01T09:51:58.841Z,100358.28
2022-09-01T09:55:24.505Z,100341.00
2022-09-01T09:58:42.713Z,100346.00
2022-09-01T10:01:45.851Z,100348.13
2022-09-01T10:04:52.580Z,100342.63
2022-09-01T10:07:58.922Z,100343.44
2022-09-01T10:11:01.994Z,100335.63
2022-09-01T10:14:50.273Z,100336.53
2022-09-01T10:18:19.691Z,100345.03
2022-09-01T10:21:26.070Z,100336.78
2022-09-01T10:24:41.914Z,100325.22
2022-09-01T10:27:54.982Z,100327.12
2022-09-01T10:30:59.936Z,100333.97
2022-09-01T10:34:06.487Z,100340.25
2022-09-01T10:37:15.982Z,100345.69
2022-09-01T10:40:30.969Z,100343.78
2022-09-01T10:43:38.301Z,100332.75
2022-09-01T10:46:50.657Z,100325.06
2022-09-01T10:49:54.331Z,100322.69
2022-09-01T10:53:00.184Z,100327.78
2022-09-01T10:56:18.832Z,100328.47
2022-09-01T10:59:31.444Z,100312.53
2022-09-01T11:02:36.938Z,100308.50
2022-09-01T11:06:11.424Z,100307.63
2022-09-01T11:09:25.993Z,100311.97
2022-09-01T11:12:47.455Z,100312.78
2022-09-01T11:15:51.082Z,100321.44
2022-09-01T11:18:55.492Z,100318.94
2022-09-01T11:22:28.728Z,100324.59
2022-09-01T11:26:18.564Z,100328.00
2022-09-01T11:29:50.973Z,100326.03
2022-09-01T11:33:03.990Z,100322.69
2022-09-01T11:36:15.085Z,100316.53
2022-09-01T11:39:17.889Z,100324.19
2022-09-01T11:42:28.733Z,100305.28
2022-09-01T11:45:36.389Z,100311.50
2022-09-01T11:48:41.266Z,100317.56
2022-09-01T11:51:47.499Z,100317.31
2022-09-01T11:54:51.650Z,100330.78
2022-09-01T11:57:54.294Z,100324.03
2022-09-01T12:01:11.389Z,100322.84
2022-09-01T12:04:27.770Z,100324.03
2022-09-01T12:09:05.194Z,100311.94
2022-09-01T12:12:28.999Z,100311.94
2022-09-01T12:15:36.675Z,100320.34
2022-09-01T12:18:51.854Z,100324.72
2022-09-01T12:22:13.664Z,100311.19
2022-09-01T12:25:29.279Z,100309.38
2022-09-01T12:28:35.524Z,100313.75
2022-09-01T12:31:43.492Z,100315.69
2022-09-01T12:34:59.352Z,100305.94
2022-09-01T12:38:28.229Z,100308.31
2022-09-01T12:41:40.199Z,100299.19
2022-09-01T12:45:05.199Z,100302.56
2022-09-01T12:48:08.091Z,100289.88
2022-09-01T12:51:29.279Z,100284.66
2022-09-01T12:54:33.860Z,100284.81
2022-09-01T12:57:49.375Z,100279.38
2022-09-01T13:01:07.182Z,100291.63
2022-09-01T13:04:25.559Z,100289.13
2022-09-01T13:07:28.344Z,100293.81
2022-09-01T13:10:38.269Z,100300.16
2022-09-01T13:13:42.429Z,100300.75
2022-09-01T13:16:46.328Z,100293.00
2022-09-01T13:19:49.043Z,100293.78
2022-09-01T13:22:54.945Z,100296.34
2022-09-01T13:25:59.223Z,100297.00
2022-09-01T13:29:02.270Z,100276.94
2022-09-01T13:32:21.875Z,100270.56
2022-09-01T13:35:26.133Z,100277.87
2022-09-01T13:38:32.233Z,100281.75
2022-09-01T13:41:35.315Z,100282.28
2022-09-01T13:44:39.154Z,100286.75
2022-09-01T13:51:15.050Z,100278.25
2022-09-01T13:54:19.534Z,100273.75
2022-09-01T13:57:22.272Z,100276.78
2022-09-01T14:00:32.305Z,100276.59
2022-09-01T14:03:35.523Z,100276.28
2022-09-01T14:06:44.447Z,100276.22
2022-09-01T14:09:47.650Z,100283.53
2022-09-01T14:12:51.100Z,100278.16
2022-09-01T14:15:54.850Z,100274.06
2022-09-01T14:18:57.531Z,100276.59
2022-09-01T14:22:00.527Z,100277.56
2022-09-01T14:25:03.407Z,100275.03
2022-09-01T14:28:08.357Z,100276.00
2022-09-01T14:31:12.466Z,100274.56
2022-09-01T14:34:15.676Z,100270.94
2022-09-01T14:37:18.705Z,100269.34
2022-09-01T14:40:24.276Z,100272.03
2022-09-01T14:43:27.413Z,100265.59
2022-09-01T14:46:34.646Z,100266.22
2022-09-01T14:49:38.568Z,100262.56
2022-09-01T14:52:41.627Z,100277.06
2022-09-01T14:55:44.307Z,100274.44
2022-09-01T14:58:48.746Z,100270.87
2022-09-01T15:01:51.472Z,100283.09
2022-09-01T15:04:54.948Z,100279.97
2022-09-01T15:07:57.663Z,100273.72
2022-09-01T15:11:01.713Z,100283.63
2022-09-01T15:14:04.512Z,100291.97
2022-09-01T15:17:07.975Z,100282.72
2022-09-01T15:20:31.952Z,100278.22
2022-09-01T15:23:35.354Z,100282.81
2022-09-01T15:26:38.799Z,100282.62
2022-09-01T15:29:47.989Z,100280.84
2022-09-01T15:32:54.199Z,100280.53
2022-09-01T15:35:57.199Z,100289.38
2022-09-01T15:39:00.573Z,100287.13
2022-09-01T15:42:03.648Z,100282.47
2022-09-01T15:45:10.718Z,100282.44
2022-09-01T15:48:14.137Z,100282.75
2022-09-01T15:51:22.738Z,100284.91
2022-09-01T15:54:30.582Z,100287.28
2022-09-01T15:57:33.578Z,100289.41
2022-09-01T16:00:36.974Z,100284.41
2022-09-01T16:03:41.679Z,100287.00
2022-09-01T16:06:44.694Z,100285.69
2022-09-01T16:09:47.775Z,100281.06
2022-09-01T16:12:52.780Z,100280.44
2022-09-01T16:16:32.810Z,100283.00
2022-09-01T16:19:43.220Z,100286.12
2022-09-01T16:22:57.356Z,100287.81
2022-09-01T16:26:01.146Z,100289.50
2022-09-01T16:29:13.798Z,100287.19
2022-09-01T16:32:17.014Z,100288.28
2022-09-01T16:35:28.648Z,100289.09
2022-09-01T16:38:41.680Z,100288.47
2022-09-01T16:41:44.770Z,100291.78
2022-09-01T16:44:47.259Z,100281.66
2022-09-01T16:48:29.494Z,100281.41
2022-09-01T16:52:00.261Z,100282.69
2022-09-01T16:55:16.672Z,100290.91
2022-09-01T16:58:25.874Z,100288.09
2022-09-01T17:01:40.613Z,100293.53
2022-09-01T17:04:54.578Z,100289.38
2022-09-01T17:08:25.361Z,100287.75
2022-09-01T17:11:53.234Z,100290.97
2022-09-01T17:15:10.410Z,100289.81
2022-09-01T17:18:30.005Z,100290.03
2022-09-01T17:22:03.204Z,100295.84
2022-09-01T17:25:18.824Z,100298.66
2022-09-01T17:29:02.846Z,100291.94
2022-09-01T17:32:15.273Z,100299.62
2022-09-01T17:35:30.486Z,100294.09
2022-09-01T17:38:54.339Z,100304.00
2022-09-01T17:42:03.050Z,100316.53
2022-09-01T17:45:19.968Z,100314.87
2022-09-01T17:48:40.461Z,100313.31
2022-09-01T17:51:55.410Z,100311.34
2022-09-01T17:55:26.537Z,100310.78
2022-09-01T17:58:50.733Z,100317.91
2022-09-01T18:02:06.203Z,100327.41
2022-09-01T18:05:23.816Z,100321.81
2022-09-01T18:08:30.640Z,100332.34
2022-09-01T18:11:53.923Z,100341.38
2022-09-01T18:15:09.049Z,100339.56
2022-09-01T18:18:27.146Z,100342.75
2022-09-01T18:21:35.484Z,100335.34
2022-09-01T18:24:58.809Z,100341.25
2022-09-01T18:28:02.074Z,100338.87
2022-09-01T18:31:15.212Z,100349.50
2022-09-01T18:34:33.726Z,100363.31
2022-09-01T18:37:46.618Z,100347.41
2022-09-01T18:40:59.409Z,100342.56
2022-09-01T18:44:35.647Z,100354.34
2022-09-01T18:48:09.501Z,100353.53
2022-09-01T18:51:28.231Z,100354.56
2022-09-01T18:54:51.288Z,100349.91
2022-09-01T18:58:00.442Z,100355.19
2022-09-01T19:01:07.315Z,100359.69
2022-09-01T19:04:31.957Z,100375.19
2022-09-01T19:08:16.190Z,100372.22
2022-09-01T19:11:31.839Z,100359.44
2022-09-01T19:14:37.860Z,100369.34
2022-09-01T19:17:59.854Z,100362.41
2022-09-01T19:21:14.356Z,100371.22
2022-09-01T19:24:36.450Z,100375.59
2022-09-01T19:27:39.550Z,100382.22
2022-09-01T19:30:55.165Z,100376.37
2022-09-01T19:34:01.903Z,100380.28
2022-09-01T19:37:06.429Z,100383.91
2022-09-01T19:40:10.779Z,100385.50
2022-09-01T19:43:18.432Z,100388.00
2022-09-01T19:46:41.343Z,100387.00
2022-09-01T19:49:54.211Z,100387.09
2022-09-01T19:53:00.815Z,100379.28
2022-09-01T19:56:22.012Z,100389.16
2022-09-01T19:59:47.668Z,100391.59
2022-09-01T20:03:01.278Z,100386.59
2022-09-01T20:09:43.194Z,100397.13
2022-09-01T20:12:55.089Z,100392.38
2022-09-01T20:16:01.034Z,100396.00
2022-09-01T20:19:21.482Z,100390.81
2022-09-01T20:22:32.848Z,100390.53
2022-09-01T20:25:59.085Z,100395.66
2022-09-01T20:29:46.193Z,100402.66
2022-09-01T20:33:03.648Z,100393.69
2022-09-01T20:36:21.307Z,100389.94
2022-09-01T20:40:00.680Z,100397.91
2022-09-01T20:43:22.705Z,100391.00
2022-09-01T20:46:27.183Z,100400.91
2022-09-01T20:49:32.642Z,100390.19
2022-09-01T20:52:56.249Z,100395.56
2022-09-01T20:56:20.500Z,100399.84
2022-09-01T20:59:49.623Z,100406.00
2022-09-01T21:03:32.509Z,100404.53
2022-09-01T21:06:55.618Z,100403.19
2022-09-01T21:10:27.518Z,100411.59
2022-09-01T21:14:14.291Z,100407.22
2022-09-01T21:17:22.938Z,100409.22
2022-09-01T21:20:32.887Z,100414.78
2022-09-01T21:23:35.601Z,100415.88
2022-09-01T21:26:40.411Z,100418.47
2022-09-01T21:30:00.009Z,100424.19
2022-09-01T21:33:04.607Z,100427.25
2022-09-01T21:36:07.531Z,100430.78
2022-09-01T21:39:10.520Z,100432.91
2022-09-01T21:42:15.236Z,100424.25
2022-09-01T21:45:19.748Z,100430.66
2022-09-01T21:48:22.514Z,100438.62
2022-09-01T21:51:25.531Z,100426.25
2022-09-01T21:54:28.254Z,100429.66
2022-09-01T21:57:31.801Z,100419.28
2022-09-01T22:00:39.499Z,100422.41
2022-09-01T22:03:42.502Z,100432.00
2022-09-01T22:06:46.731Z,100422.63
2022-09-01T22:09:50.142Z,100422.63
2022-09-01T22:12:53.933Z,100415.94
2022-09-01T22:15:56.923Z,100420.91
2022-09-01T22:19:00.511Z,100422.94
2022-09-01T22:22:04.652Z,100418.69
2022-09-01T22:25:13.374Z,100408.28
2022-09-01T22:28:16.328Z,100420.94
2022-09-01T22:31:21.732Z,100405.34
2022-09-01T22:34:24.785Z,100406.47
2022-09-01T22:37:27.479Z,100411.56
2022-09-01T22:40:30.542Z,100417.47
2022-09-01T22:43:33.906Z,100415.03
2022-09-01T22:46:38.693Z,100417.34
2022-09-01T22:49:41.271Z,100416.34
2022-09-01T22:52:44.302Z,100419.97
2022-09-01T22:55:49.393Z,100408.38
2022-09-01T22:58:55.944Z,100421.47
2022-09-01T23:02:01.351Z,100416.72
2022-09-01T23:05:06.018Z,100407.59
2022-09-01T23:08:09.879Z,100418.03
2022-09-01T23:11:14.586Z,100419.75
2022-09-01T23:14:18.711Z,100405.81
2022-09-01T23:17:21.710Z,100409.03
2022-09-01T23:20:24.412Z,100410.41
2022-09-01T23:23:27.584Z,100407.66
2022-09-01T23:26:32.170Z,100403.25
2022-09-01T23:29:35.229Z,100402.94
2022-09-01T23:32:39.187Z,100408.38
2022-09-01T23:35:47.889Z,100404.03
2022-09-01T23:38:51.893Z,100400.47
2022-09-01T23:41:54.940Z,100397.22
2022-09-01T23:44:57.602Z,100404.22
2022-09-01T23:48:01.407Z,100403.88
2022-09-01T23:51:10.109Z,100408.38
2022-09-01T23:54:13.898Z,100396.66
2022-09-01T23:57:16.607Z,100395.47
